createdAt,value
2018-07-03T00:02:11.672Z,11.60
2018-07-03T00:05:16.543Z,11.40
2018-07-03T00:08:21.180Z,11.40
2018-07-03T00:11:25.511Z,11.20
2018-07-03T00:14:29.970Z,11.50
2018-07-03T00:17:34.553Z,11.50
2018-07-03T00:20:38.871Z,11.30
2018-07-03T00:23:43.609Z,11.10
2018-07-03T00:26:47.899Z,11.20
2018-07-03T00:29:52.230Z,11.10
2018-07-03T00:32:57.088Z,11.10
2018-07-03T00:36:01.466Z,11.00
2018-07-03T00:39:08.160Z,10.70
2018-07-03T00:42:12.945Z,10.60
2018-07-03T00:45:17.490Z,10.70
2018-07-03T00:48:22.323Z,10.70
2018-07-03T00:51:26.993Z,10.80
2018-07-03T00:54:31.867Z,10.70
2018-07-03T01:00:40.335Z,10.70
2018-07-03T01:03:45.124Z,10.60
2018-07-03T01:06:50.052Z,10.70
2018-07-03T01:09:54.609Z,10.50
2018-07-03T01:12:58.816Z,10.30
2018-07-03T01:16:03.461Z,10.50
2018-07-03T01:19:08.073Z,10.40
2018-07-03T01:22:12.633Z,10.40
2018-07-03T01:25:17.314Z,10.20
2018-07-03T01:28:21.636Z,10.40
2018-07-03T01:31:26.572Z,10.30
2018-07-03T01:34:31.237Z,10.30
2018-07-03T01:37:35.620Z,10.20
2018-07-03T01:40:40.062Z,10.10
2018-07-03T01:43:44.698Z,9.90
2018-07-03T01:46:49.072Z,9.80
2018-07-03T01:49:53.649Z,9.80
2018-07-03T01:52:58.950Z,9.90
2018-07-03T01:56:03.188Z,9.80
2018-07-03T01:59:08.036Z,9.90
2018-07-03T02:02:12.758Z,10.00
2018-07-03T02:05:17.272Z,10.00
2018-07-03T02:08:21.974Z,9.90
2018-07-03T02:11:26.570Z,9.80
2018-07-03T02:14:33.310Z,9.60
2018-07-03T02:17:37.697Z,9.50
2018-07-03T02:20:42.589Z,9.50
2018-07-03T02:23:47.466Z,9.70
2018-07-03T02:26:52.128Z,9.50
2018-07-03T02:29:56.685Z,9.40
2018-07-03T02:33:00.958Z,9.30
2018-07-03T02:36:05.905Z,9.20
2018-07-03T02:39:11.662Z,9.20
2018-07-03T02:42:16.180Z,9.20
2018-07-03T02:45:20.837Z,9.20
2018-07-03T02:48:25.535Z,9.10
2018-07-03T02:51:29.836Z,9.50
2018-07-03T02:54:34.457Z,9.20
2018-07-03T02:57:38.947Z,9.00
2018-07-03T03:00:43.398Z,9.00
2018-07-03T03:03:47.748Z,8.90
2018-07-03T03:06:52.483Z,8.90
2018-07-03T03:09:56.687Z,9.00
2018-07-03T03:13:01.017Z,9.10
2018-07-03T03:16:05.803Z,9.10
2018-07-03T03:19:10.033Z,9.20
2018-07-03T03:22:14.356Z,9.20
2018-07-03T03:25:18.758Z,9.20
2018-07-03T03:28:23.458Z,9.20
2018-07-03T03:31:27.895Z,9.10
2018-07-03T03:34:32.691Z,8.90
2018-07-03T03:37:37.028Z,8.90
2018-07-03T03:40:41.869Z,8.80
2018-07-03T03:43:47.207Z,8.90
2018-07-03T03:46:51.915Z,9.10
2018-07-03T03:49:56.395Z,9.00
2018-07-03T03:53:01.019Z,8.80
2018-07-03T03:56:06.226Z,8.90
2018-07-03T03:59:10.974Z,8.80
2018-07-03T04:02:15.558Z,8.80
2018-07-03T04:05:20.207Z,8.80
2018-07-03T04:08:24.610Z,8.90
2018-07-03T04:11:29.287Z,9.20
2018-07-03T04:14:33.913Z,9.20
2018-07-03T04:17:38.447Z,8.90
2018-07-03T04:20:42.973Z,8.90
2018-07-03T04:23:47.687Z,9.00
2018-07-03T04:26:52.989Z,9.00
2018-07-03T04:29:57.388Z,9.10
2018-07-03T04:33:02.231Z,9.20
2018-07-03T04:36:06.785Z,9.20
2018-07-03T04:39:11.928Z,9.40
2018-07-03T04:42:16.282Z,9.60
2018-07-03T04:45:20.746Z,9.70
2018-07-03T04:48:25.278Z,9.70
2018-07-03T04:51:30.309Z,9.70
2018-07-03T04:54:34.817Z,9.60
2018-07-03T04:57:39.112Z,9.80
2018-07-03T05:00:43.415Z,10.00
2018-07-03T05:03:48.146Z,10.00
2018-07-03T05:06:53.184Z,10.20
2018-07-03T05:09:57.581Z,10.30
2018-07-03T05:13:02.152Z,10.70
2018-07-03T05:16:06.762Z,10.70
2018-07-03T05:19:11.100Z,10.90
2018-07-03T05:22:15.459Z,10.90
2018-07-03T05:25:19.861Z,11.00
2018-07-03T05:28:24.318Z,11.10
2018-07-03T05:31:29.144Z,11.30
2018-07-03T05:34:33.961Z,11.50
2018-07-03T05:37:38.241Z,11.70
2018-07-03T05:40:42.852Z,11.80
2018-07-03T05:43:47.715Z,12.00
2018-07-03T05:46:52.763Z,12.10
2018-07-03T05:49:57.329Z,12.50
2018-07-03T05:53:01.876Z,12.70
2018-07-03T05:56:07.566Z,13.00
2018-07-03T05:59:12.453Z,13.20
2018-07-03T06:02:17.330Z,13.50
2018-07-03T06:05:21.784Z,13.70
2018-07-03T06:08:26.155Z,14.10
2018-07-03T06:14:35.036Z,18.20
2018-07-03T06:17:39.428Z,20.20
2018-07-03T06:20:44.250Z,21.90
2018-07-03T06:23:48.816Z,24.00
2018-07-03T06:26:53.376Z,25.50
2018-07-03T06:29:58.006Z,26.90
2018-07-03T06:33:03.120Z,28.80
2018-07-03T06:36:08.598Z,28.80
2018-07-03T06:39:14.334Z,29.80
2018-07-03T06:42:19.187Z,30.90
2018-07-03T06:45:23.883Z,30.90
2018-07-03T06:48:28.852Z,31.70
2018-07-03T06:51:33.781Z,32.00
2018-07-03T06:54:38.384Z,32.20
2018-07-03T06:57:43.608Z,32.40
2018-07-03T07:00:48.598Z,32.70
2018-07-03T07:03:53.704Z,32.50
2018-07-03T07:06:58.243Z,33.30
2018-07-03T07:10:02.885Z,33.50
2018-07-03T07:13:07.812Z,33.90
2018-07-03T07:16:17.866Z,33.00
2018-07-03T07:19:25.453Z,33.30
2018-07-03T07:22:31.472Z,34.00
2018-07-03T07:25:35.787Z,33.90
2018-07-03T07:28:40.620Z,35.20
2018-07-03T07:31:45.349Z,34.90
2018-07-03T07:34:49.885Z,35.20
2018-07-03T07:37:56.487Z,35.30
2018-07-03T07:41:01.066Z,35.10
2018-07-03T07:44:06.766Z,34.70
2018-07-03T07:47:12.079Z,35.00
2018-07-03T07:50:17.107Z,36.20
2018-07-03T07:53:22.384Z,32.90
2018-07-03T07:56:27.631Z,31.30
2018-07-03T07:59:32.439Z,31.30
2018-07-03T08:02:37.097Z,32.90
2018-07-03T08:05:41.500Z,32.90
2018-07-03T08:08:46.199Z,33.10
2018-07-03T08:11:51.382Z,33.60
2018-07-03T08:14:56.064Z,34.20
2018-07-03T08:18:01.231Z,34.50
2018-07-03T08:21:06.663Z,33.40
2018-07-03T08:24:12.200Z,33.00
2018-07-03T08:27:17.453Z,31.60
2018-07-03T08:30:22.353Z,31.30
2018-07-03T08:33:27.216Z,32.70
2018-07-03T08:36:32.282Z,32.40
2018-07-03T08:39:36.720Z,31.80
2018-07-03T08:42:41.125Z,31.40
2018-07-03T08:45:45.901Z,31.70
2018-07-03T08:48:50.856Z,30.40
2018-07-03T08:51:55.828Z,30.00
2018-07-03T08:55:00.872Z,29.60
2018-07-03T08:58:06.559Z,30.90
2018-07-03T09:01:11.407Z,31.40
2018-07-03T09:04:16.481Z,30.90
2018-07-03T09:07:21.264Z,32.10
2018-07-03T09:10:25.963Z,33.40
2018-07-03T09:13:31.026Z,33.50
2018-07-03T09:16:35.939Z,33.30
2018-07-03T09:19:40.820Z,33.70
2018-07-03T09:22:45.783Z,34.20
2018-07-03T09:25:50.609Z,33.40
2018-07-03T09:28:55.201Z,32.80
2018-07-03T09:31:59.804Z,32.30
2018-07-03T09:35:04.903Z,32.10
2018-07-03T09:38:09.550Z,31.50
2018-07-03T09:41:14.092Z,32.40
2018-07-03T09:44:18.979Z,31.10
2018-07-03T09:47:24.069Z,30.90
2018-07-03T09:50:29.344Z,31.10
2018-07-03T09:53:34.291Z,31.80
2018-07-03T09:56:39.018Z,30.70
2018-07-03T09:59:43.876Z,29.50
2018-07-03T10:02:49.039Z,29.40
2018-07-03T10:05:53.653Z,30.50
2018-07-03T10:08:58.102Z,31.10
2018-07-03T10:12:02.870Z,30.50
2018-07-03T10:15:07.632Z,30.00
2018-07-03T10:18:13.153Z,29.40
2018-07-03T10:21:17.987Z,29.90
2018-07-03T10:24:22.748Z,29.20
2018-07-03T10:27:27.979Z,28.90
2018-07-03T10:30:32.804Z,28.80
2018-07-03T10:33:37.756Z,29.00
2018-07-03T10:36:42.394Z,29.00
2018-07-03T10:39:47.020Z,29.40
2018-07-03T10:42:51.691Z,30.70
2018-07-03T10:45:56.490Z,30.60
2018-07-03T10:49:01.008Z,30.30
2018-07-03T10:52:05.548Z,29.30
2018-07-03T10:55:10.192Z,28.70
2018-07-03T10:58:14.988Z,28.90
2018-07-03T11:01:19.801Z,29.30
2018-07-03T11:04:24.768Z,28.40
2018-07-03T11:07:31.762Z,28.70
2018-07-03T11:10:36.439Z,28.70
2018-07-03T11:13:41.218Z,28.80
2018-07-03T11:16:45.516Z,28.20
2018-07-03T11:19:50.314Z,28.30
2018-07-03T11:22:54.990Z,29.20
2018-07-03T11:26:00.427Z,29.10
2018-07-03T11:29:05.095Z,29.30
2018-07-03T11:32:10.326Z,29.80
2018-07-03T11:35:14.643Z,29.90
2018-07-03T11:38:19.229Z,29.30
2018-07-03T11:41:24.097Z,28.30
2018-07-03T11:44:28.496Z,28.10
2018-07-03T11:47:34.345Z,28.00
2018-07-03T11:50:38.970Z,27.80
2018-07-03T11:53:43.933Z,27.10
2018-07-03T11:56:48.524Z,27.10
2018-07-03T11:59:53.062Z,27.10
2018-07-03T12:02:57.577Z,27.10
2018-07-03T12:06:02.089Z,26.90
2018-07-03T12:09:09.501Z,26.80
2018-07-03T12:12:14.482Z,26.20
2018-07-03T12:15:19.156Z,26.00
2018-07-03T12:18:29.083Z,25.70
2018-07-03T12:21:34.034Z,25.80
2018-07-03T12:24:39.375Z,25.70
2018-07-03T12:27:44.128Z,25.40
2018-07-03T12:30:49.036Z,25.60
2018-07-03T12:33:53.591Z,25.50
2018-07-03T12:36:58.245Z,25.80
2018-07-03T12:40:02.888Z,26.00
2018-07-03T12:43:07.795Z,26.20
2018-07-03T12:46:12.800Z,26.20
2018-07-03T12:49:17.407Z,26.40
2018-07-03T12:52:21.784Z,26.30
2018-07-03T12:55:26.425Z,26.20
2018-07-03T12:58:31.266Z,25.90
2018-07-03T13:01:35.992Z,26.00
2018-07-03T13:04:40.395Z,26.30
2018-07-03T13:07:44.847Z,25.90
2018-07-03T13:10:49.461Z,26.00
2018-07-03T13:13:54.444Z,25.90
2018-07-03T13:16:59.656Z,25.80
2018-07-03T13:20:10.326Z,25.80
2018-07-03T13:23:15.301Z,25.90
2018-07-03T13:26:20.040Z,26.20
2018-07-03T13:29:24.848Z,26.40
2018-07-03T13:32:30.670Z,26.30
2018-07-03T13:35:35.271Z,26.70
2018-07-03T13:38:39.730Z,26.70
2018-07-03T13:41:44.482Z,26.80
2018-07-03T13:44:49.368Z,26.90
2018-07-03T13:47:54.329Z,27.30
2018-07-03T13:50:58.810Z,27.20
2018-07-03T13:54:03.386Z,27.30
2018-07-03T13:57:07.797Z,27.20
2018-07-03T14:00:12.377Z,26.80
2018-07-03T14:03:16.972Z,26.60
2018-07-03T14:06:22.826Z,26.50
2018-07-03T14:09:28.511Z,26.40
2018-07-03T14:12:33.918Z,26.60
2018-07-03T14:15:38.661Z,26.80
2018-07-03T14:18:43.340Z,26.40
2018-07-03T14:21:48.209Z,26.30
2018-07-03T14:24:53.228Z,26.50
2018-07-03T14:27:57.995Z,26.60
2018-07-03T14:31:02.411Z,26.80
2018-07-03T14:34:07.048Z,27.30
2018-07-03T14:37:11.574Z,27.30
2018-07-03T14:40:15.960Z,27.00
2018-07-03T14:43:20.939Z,27.30
2018-07-03T14:46:26.073Z,27.50
2018-07-03T14:49:30.946Z,27.30
2018-07-03T14:52:35.613Z,27.30
2018-07-03T14:55:40.205Z,27.20
2018-07-03T14:58:44.848Z,27.00
2018-07-03T15:01:49.533Z,26.80
2018-07-03T15:04:55.669Z,26.60
2018-07-03T15:08:00.019Z,26.40
2018-07-03T15:11:04.724Z,26.30
2018-07-03T15:14:09.298Z,26.60
2018-07-03T15:17:13.845Z,26.60
2018-07-03T15:20:18.631Z,26.50
2018-07-03T15:23:23.380Z,26.70
2018-07-03T15:26:28.580Z,27.20
2018-07-03T15:29:33.322Z,27.20
2018-07-03T15:32:38.156Z,27.10
2018-07-03T15:35:42.616Z,27.00
2018-07-03T15:38:47.500Z,27.10
2018-07-03T15:41:52.405Z,27.00
2018-07-03T15:45:07.408Z,27.20
2018-07-03T15:48:11.992Z,27.20
2018-07-03T15:51:16.429Z,27.20
2018-07-03T15:54:20.688Z,27.00
2018-07-03T15:57:24.973Z,26.90
2018-07-03T16:00:29.790Z,26.90
2018-07-03T16:05:47.828Z,27.00
2018-07-03T16:09:05.213Z,27.10
2018-07-03T16:12:09.632Z,26.90
2018-07-03T16:15:14.435Z,27.20
2018-07-03T16:18:18.917Z,27.30
2018-07-03T16:21:23.352Z,27.30
2018-07-03T16:24:28.531Z,27.20
2018-07-03T16:27:33.017Z,27.10
2018-07-03T16:30:37.541Z,27.10
2018-07-03T16:33:42.468Z,27.10
2018-07-03T16:36:47.144Z,27.20
2018-07-03T16:39:51.932Z,27.00
2018-07-03T16:42:56.771Z,27.00
2018-07-03T16:46:01.291Z,27.00
2018-07-03T16:49:05.808Z,26.90
2018-07-03T16:52:12.159Z,26.80
2018-07-03T16:55:21.017Z,26.70
2018-07-03T16:58:25.797Z,26.80
2018-07-03T17:01:31.290Z,26.90
2018-07-03T17:04:37.530Z,26.90
2018-07-03T17:07:43.750Z,26.80
2018-07-03T17:16:30.464Z,26.60
2018-07-03T17:19:37.726Z,26.60
2018-07-03T17:22:42.500Z,26.80
2018-07-03T17:25:46.981Z,26.80
2018-07-03T17:28:51.565Z,26.80
2018-07-03T17:31:56.482Z,26.70
2018-07-03T17:35:00.790Z,26.60
2018-07-03T17:38:05.185Z,26.50
2018-07-03T17:41:20.902Z,26.20
2018-07-03T17:44:40.742Z,26.10
2018-07-03T17:47:45.485Z,26.00
2018-07-03T17:50:50.268Z,26.00
2018-07-03T17:53:54.664Z,26.10
2018-07-03T17:56:59.317Z,26.10
2018-07-03T18:00:04.595Z,26.10
2018-07-03T18:03:09.273Z,26.10
2018-07-03T18:06:13.793Z,26.10
2018-07-03T18:09:18.457Z,26.10
2018-07-03T18:12:23.017Z,26.10
2018-07-03T18:15:27.568Z,26.00
2018-07-03T18:18:32.294Z,26.00
2018-07-03T18:21:36.971Z,25.90
2018-07-03T18:24:41.471Z,25.90
2018-07-03T18:27:46.043Z,25.80
2018-07-03T18:30:50.692Z,25.70
2018-07-03T18:33:55.019Z,25.50
2018-07-03T18:36:59.775Z,25.40
2018-07-03T18:40:04.672Z,25.40
2018-07-03T18:43:09.473Z,25.30
2018-07-03T18:46:14.056Z,25.10
2018-07-03T18:49:18.561Z,24.90
2018-07-03T18:52:23.138Z,24.70
2018-07-03T18:55:27.719Z,24.60
2018-07-03T18:58:32.890Z,24.40
2018-07-03T19:01:37.516Z,24.40
2018-07-03T19:04:42.236Z,24.20
2018-07-03T19:07:47.016Z,24.10
2018-07-03T19:10:51.646Z,23.90
2018-07-03T19:13:56.460Z,23.80
2018-07-03T19:17:01.246Z,23.60
2018-07-03T19:20:06.063Z,23.50
2018-07-03T19:23:10.811Z,23.40
2018-07-03T19:26:15.501Z,23.20
2018-07-03T19:29:19.987Z,23.00
2018-07-03T19:32:24.645Z,22.70
2018-07-03T19:35:29.681Z,22.50
2018-07-03T19:38:34.359Z,22.20
2018-07-03T19:41:39.405Z,22.00
2018-07-03T19:44:43.945Z,21.70
2018-07-03T19:47:49.123Z,21.50
2018-07-03T19:50:54.087Z,21.30
2018-07-03T19:53:58.602Z,21.10
2018-07-03T19:57:03.069Z,20.90
2018-07-03T20:00:08.363Z,20.70
2018-07-03T20:03:13.132Z,20.50
2018-07-03T20:06:17.782Z,20.30
2018-07-03T20:09:22.255Z,20.20
2018-07-03T20:12:26.955Z,20.00
2018-07-03T20:15:31.931Z,19.80
2018-07-03T20:18:36.764Z,19.70
2018-07-03T20:21:43.593Z,19.60
2018-07-03T20:24:54.448Z,19.50
2018-07-03T20:27:59.477Z,19.50
2018-07-03T20:31:04.038Z,19.40
2018-07-03T20:34:08.840Z,19.30
2018-07-03T20:37:13.526Z,19.10
2018-07-03T20:40:18.004Z,18.90
2018-07-03T20:43:23.014Z,18.80
2018-07-03T20:46:27.424Z,18.70
2018-07-03T20:49:32.165Z,18.50
2018-07-03T20:52:36.926Z,18.30
2018-07-03T20:55:41.974Z,18.30
2018-07-03T20:58:46.746Z,18.20
2018-07-03T21:01:51.748Z,18.00
2018-07-03T21:04:56.570Z,17.90
2018-07-03T21:08:01.714Z,17.70
2018-07-03T21:11:06.426Z,17.60
2018-07-03T21:14:10.806Z,17.50
2018-07-03T21:17:15.309Z,17.40
2018-07-03T21:20:20.013Z,17.40
2018-07-03T21:23:24.468Z,17.30
2018-07-03T21:26:29.500Z,17.20
2018-07-03T21:29:34.503Z,17.10
2018-07-03T21:32:39.084Z,17.00
2018-07-03T21:35:43.618Z,16.90
2018-07-03T21:38:48.153Z,16.80
2018-07-03T21:41:52.905Z,16.80
2018-07-03T21:44:57.364Z,16.70
2018-07-03T21:48:01.943Z,16.60
2018-07-03T21:51:06.628Z,16.50
2018-07-03T21:54:12.115Z,16.50
2018-07-03T21:57:16.628Z,16.30
2018-07-03T22:00:35.196Z,16.20
2018-07-03T22:03:39.799Z,16.20
2018-07-03T22:06:44.288Z,16.30
2018-07-03T22:09:48.839Z,16.20
2018-07-03T22:12:53.495Z,16.10
2018-07-03T22:15:58.339Z,16.00
2018-07-03T22:19:03.262Z,15.90
2018-07-03T22:22:08.316Z,15.80
2018-07-03T22:25:12.858Z,15.70
2018-07-03T22:28:18.195Z,15.70
2018-07-03T22:31:23.058Z,15.70
2018-07-03T22:34:27.822Z,15.60
2018-07-03T22:37:32.577Z,15.60
2018-07-03T22:40:37.388Z,15.60
2018-07-03T22:43:42.074Z,15.50
2018-07-03T22:46:46.649Z,15.50
2018-07-03T22:49:51.370Z,15.40
2018-07-03T22:52:56.136Z,15.30
2018-07-03T22:56:00.634Z,15.30
2018-07-03T22:59:05.045Z,15.30
2018-07-03T23:02:09.533Z,15.30
2018-07-03T23:05:14.181Z,15.10
2018-07-03T23:08:19.138Z,15.10
2018-07-03T23:11:24.820Z,15.10
2018-07-03T23:14:29.689Z,14.90
2018-07-03T23:17:34.392Z,14.90
2018-07-03T23:23:42.845Z,14.80
2018-07-03T23:26:47.382Z,14.70
2018-07-03T23:29:52.436Z,14.50
2018-07-03T23:32:57.702Z,14.50
2018-07-03T23:36:02.280Z,14.40
2018-07-03T23:39:09.406Z,14.30
2018-07-03T23:42:13.939Z,14.20
2018-07-03T23:45:18.442Z,14.30
2018-07-03T23:48:34.345Z,14.30
2018-07-03T23:51:50.002Z,14.30
2018-07-03T23:55:06.088Z,14.30
2018-07-03T23:58:22.086Z,14.10
